Terminal Aerodrome Forecast
Issued by NWS

Home | Current Version | Previous Version | Text Only | Print | Product List | Glossary On
Versions: 1 2 3 4 5 6 7 8 9 10 11 12 13 14
000
FTUS43 KICT 280539
TAFCNU
TAF
KCNU 280539Z 2806/2906 16007KT P6SM FEW150 SCT300
     FM280900 18014KT P6SM FEW150 SCT300
     FM281400 19018G26KT P6SM SCT300
     FM290000 18009KT P6SM FEW250=

USA.gov is the U.S. government's official web portal to all federal, state and local government web resources and services.